CHH7521 ZUTF-ZULS
Flight info
| Callsign | CHH7521 |
|---|---|
| Flight time | 2h 6m |
| Altitude | 341 |
| Route | ZUTF MUMGO B213 IGELA W522 IGDAG ZULS |
| Aircraft | B738/M-SDE2E3FGHIJ5LORVWXY/LB1 |
Departure
| Time | 2026-05-05 08:25 |
|---|---|
| Airport | Chengdu Tianfu International Airport (ZUTF) |
Arrival
| Time | 2026-05-05 10:31 |
|---|---|
| Airport | Lhasa Gonggar International Airport (ZULS) |
| Time | Latitude | Longitude | Altitude | Speed | Heading |
|---|---|---|---|---|---|
| 2026-05-05 07:31 | 30.31018 | 104.44116 | 1460 ft | 0 kts | 113° |
| 2026-05-05 08:08 | 30.31019 | 104.44115 | 1460 ft | 0 kts | 113° |
| 2026-05-05 08:09 | 30.31022 | 104.44105 | 1460 ft | 2 kts | 112° |
| 2026-05-05 08:10 | 30.31028 | 104.44089 | 1460 ft | 2 kts | 113° |
| 2026-05-05 08:10 | 30.31034 | 104.44073 | 1460 ft | 1 kts | 126° |
| 2026-05-05 08:10 | 30.31046 | 104.44064 | 1460 ft | 2 kts | 171° |
| 2026-05-05 08:10 | 30.31057 | 104.44064 | 1460 ft | 0 kts | 199° |
| 2026-05-05 08:11 | 30.31064 | 104.44067 | 1460 ft | 0 kts | 202° |
| 2026-05-05 08:12 | 30.31063 | 104.44067 | 1460 ft | 0 kts | 202° |
| 2026-05-05 08:12 | 30.31035 | 104.44054 | 1460 ft | 7 kts | 200° |
| 2026-05-05 08:12 | 30.30965 | 104.44025 | 1460 ft | 14 kts | 200° |
| 2026-05-05 08:13 | 30.30858 | 104.43975 | 1460 ft | 19 kts | 204° |
| 2026-05-05 08:13 | 30.30785 | 104.43937 | 1460 ft | 3 kts | 202° |
| 2026-05-05 08:13 | 30.30731 | 104.43913 | 1460 ft | 12 kts | 198° |
| 2026-05-05 08:13 | 30.30666 | 104.43973 | 1460 ft | 15 kts | 110° |
| 2026-05-05 08:14 | 30.30652 | 104.44013 | 1460 ft | 1 kts | 112° |
| 2026-05-05 08:14 | 30.30643 | 104.44041 | 1460 ft | 6 kts | 112° |
| 2026-05-05 08:14 | 30.30617 | 104.44110 | 1460 ft | 14 kts | 113° |
| 2026-05-05 08:14 | 30.30583 | 104.44209 | 1460 ft | 8 kts | 111° |
| 2026-05-05 08:15 | 30.30549 | 104.44308 | 1460 ft | 11 kts | 107° |
| 2026-05-05 08:15 | 30.30626 | 104.44383 | 1460 ft | 13 kts | 28° |
| 2026-05-05 08:15 | 30.30719 | 104.44421 | 1460 ft | 20 kts | 22° |
| 2026-05-05 08:15 | 30.30873 | 104.44496 | 1460 ft | 24 kts | 22° |
| 2026-05-05 08:16 | 30.30933 | 104.44579 | 1460 ft | 15 kts | 96° |
| 2026-05-05 08:16 | 30.30926 | 104.44604 | 1460 ft | 0 kts | 117° |
| 2026-05-05 08:16 | 30.30914 | 104.44633 | 1460 ft | 12 kts | 115° |
| 2026-05-05 08:16 | 30.30866 | 104.44770 | 1460 ft | 22 kts | 112° |
| 2026-05-05 08:17 | 30.30855 | 104.44905 | 1460 ft | 13 kts | 41° |
| 2026-05-05 08:17 | 30.30891 | 104.45005 | 1460 ft | 14 kts | 48° |
| 2026-05-05 08:17 | 30.31001 | 104.45064 | 1460 ft | 17 kts | 21° |
| 2026-05-05 08:17 | 30.31111 | 104.45116 | 1460 ft | 11 kts | 22° |
| 2026-05-05 08:18 | 30.31184 | 104.45152 | 1460 ft | 13 kts | 23° |
| 2026-05-05 08:18 | 30.31235 | 104.45177 | 1460 ft | 14 kts | 22° |
| 2026-05-05 08:18 | 30.31336 | 104.45225 | 1460 ft | 16 kts | 22° |
| 2026-05-05 08:18 | 30.31448 | 104.45278 | 1460 ft | 18 kts | 22° |
| 2026-05-05 08:19 | 30.31493 | 104.45300 | 1460 ft | 2 kts | 22° |
| 2026-05-05 08:19 | 30.31517 | 104.45312 | 1460 ft | 5 kts | 26° |
| 2026-05-05 08:19 | 30.31541 | 104.45371 | 1460 ft | 14 kts | 110° |
| 2026-05-05 08:19 | 30.31481 | 104.45535 | 1460 ft | 27 kts | 111° |
| 2026-05-05 08:20 | 30.31404 | 104.45748 | 1460 ft | 28 kts | 113° |
| 2026-05-05 08:20 | 30.31359 | 104.45914 | 1460 ft | 11 kts | 69° |
| 2026-05-05 08:20 | 30.31414 | 104.45956 | 1460 ft | 0 kts | 19° |
| 2026-05-05 08:21 | 30.31437 | 104.45966 | 1460 ft | 8 kts | 19° |
| 2026-05-05 08:22 | 30.31495 | 104.46038 | 1460 ft | 16 kts | 94° |
| 2026-05-05 08:22 | 30.31485 | 104.46077 | 1460 ft | 0 kts | 110° |
| 2026-05-05 08:22 | 30.31481 | 104.46089 | 1460 ft | 0 kts | 110° |
| 2026-05-05 08:24 | 30.31470 | 104.46124 | 1460 ft | 20 kts | 111° |
| 2026-05-05 08:24 | 30.31298 | 104.46602 | 1460 ft | 112 kts | 111° |
| 2026-05-05 08:24 | 30.30905 | 104.47721 | 1535 ft | 179 kts | 115° |
| 2026-05-05 08:25 | 30.30386 | 104.49132 | 2234 ft | 201 kts | 113° |
| 2026-05-05 08:25 | 30.29826 | 104.50626 | 2191 ft | 207 kts | 114° |
| 2026-05-05 08:25 | 30.29323 | 104.52082 | 2292 ft | 195 kts | 111° |
| 2026-05-05 08:25 | 30.28827 | 104.53477 | 2497 ft | 192 kts | 114° |
| 2026-05-05 08:26 | 30.28286 | 104.55024 | 2630 ft | 207 kts | 112° |
| 2026-05-05 08:26 | 30.27748 | 104.56671 | 2983 ft | 227 kts | 111° |
| 2026-05-05 08:26 | 30.27194 | 104.58388 | 3251 ft | 231 kts | 110° |
| 2026-05-05 08:26 | 30.26590 | 104.60085 | 3538 ft | 231 kts | 115° |
| 2026-05-05 08:27 | 30.25923 | 104.61781 | 3825 ft | 232 kts | 114° |
| 2026-05-05 08:27 | 30.25302 | 104.63496 | 4115 ft | 236 kts | 112° |
| 2026-05-05 08:27 | 30.24688 | 104.65234 | 4470 ft | 232 kts | 114° |
| 2026-05-05 08:27 | 30.24058 | 104.66969 | 4976 ft | 237 kts | 114° |
| 2026-05-05 08:28 | 30.23406 | 104.68771 | 5491 ft | 251 kts | 113° |
| 2026-05-05 08:28 | 30.22724 | 104.70699 | 6002 ft | 270 kts | 113° |
| 2026-05-05 08:28 | 30.21990 | 104.72784 | 6501 ft | 290 kts | 113° |
| 2026-05-05 08:28 | 30.21234 | 104.75015 | 6996 ft | 309 kts | 108° |
| 2026-05-05 08:29 | 30.20899 | 104.77459 | 7490 ft | 315 kts | 90° |
| 2026-05-05 08:29 | 30.21327 | 104.79977 | 8206 ft | 324 kts | 72° |
| 2026-05-05 08:29 | 30.22380 | 104.82291 | 8925 ft | 338 kts | 56° |
| 2026-05-05 08:30 | 30.26393 | 104.85269 | 10392 ft | 354 kts | 21° |
| 2026-05-05 08:30 | 30.28688 | 104.86304 | 11121 ft | 357 kts | 23° |
| 2026-05-05 08:30 | 30.31008 | 104.87283 | 11834 ft | 360 kts | 15° |
| 2026-05-05 08:30 | 30.33516 | 104.87611 | 12556 ft | 362 kts | 354° |
| 2026-05-05 08:31 | 30.35884 | 104.86828 | 13280 ft | 361 kts | 330° |
| 2026-05-05 08:31 | 30.38022 | 104.85312 | 14029 ft | 360 kts | 323° |
| 2026-05-05 08:31 | 30.40042 | 104.83620 | 14775 ft | 361 kts | 322° |
| 2026-05-05 08:31 | 30.42095 | 104.81928 | 15513 ft | 362 kts | 323° |
| 2026-05-05 08:32 | 30.44162 | 104.80261 | 16255 ft | 363 kts | 322° |
| 2026-05-05 08:32 | 30.46021 | 104.78372 | 16977 ft | 360 kts | 309° |
| 2026-05-05 08:32 | 30.47377 | 104.75936 | 17724 ft | 359 kts | 291° |
| 2026-05-05 08:32 | 30.48022 | 104.73182 | 18469 ft | 359 kts | 278° |
| 2026-05-05 08:33 | 30.48242 | 104.70287 | 19228 ft | 361 kts | 273° |
| 2026-05-05 08:33 | 30.48389 | 104.67391 | 19980 ft | 362 kts | 274° |
| 2026-05-05 08:33 | 30.48578 | 104.64464 | 20739 ft | 363 kts | 275° |
| 2026-05-05 08:33 | 30.48790 | 104.61585 | 21490 ft | 363 kts | 275° |
| 2026-05-05 08:34 | 30.48992 | 104.58678 | 22250 ft | 362 kts | 275° |
| 2026-05-05 08:34 | 30.49174 | 104.55781 | 23023 ft | 360 kts | 275° |
| 2026-05-05 08:34 | 30.49332 | 104.52930 | 23799 ft | 358 kts | 275° |
| 2026-05-05 08:34 | 30.49477 | 104.50067 | 24402 ft | 361 kts | 275° |
| 2026-05-05 08:35 | 30.49637 | 104.47117 | 24919 ft | 365 kts | 275° |
| 2026-05-05 08:35 | 30.49809 | 104.44191 | 25362 ft | 371 kts | 275° |
| 2026-05-05 08:35 | 30.49998 | 104.41216 | 25884 ft | 374 kts | 276° |
| 2026-05-05 08:35 | 30.50188 | 104.38214 | 26353 ft | 377 kts | 276° |
| 2026-05-05 08:36 | 30.50370 | 104.35143 | 26831 ft | 381 kts | 276° |
| 2026-05-05 08:36 | 30.50534 | 104.32095 | 27311 ft | 384 kts | 275° |
| 2026-05-05 08:36 | 30.50688 | 104.28996 | 27777 ft | 386 kts | 275° |
| 2026-05-05 08:36 | 30.50841 | 104.25912 | 28214 ft | 389 kts | 275° |
| 2026-05-05 08:37 | 30.51042 | 104.22743 | 28629 ft | 392 kts | 278° |
| 2026-05-05 08:37 | 30.51454 | 104.19631 | 29047 ft | 394 kts | 284° |
| 2026-05-05 08:37 | 30.52134 | 104.16578 | 29609 ft | 392 kts | 287° |
| 2026-05-05 08:37 | 30.52857 | 104.13563 | 30221 ft | 389 kts | 287° |
| 2026-05-05 08:38 | 30.53551 | 104.10552 | 30710 ft | 389 kts | 286° |
| 2026-05-05 08:38 | 30.54232 | 104.07513 | 31167 ft | 390 kts | 286° |
| 2026-05-05 08:38 | 30.54928 | 104.04462 | 31544 ft | 392 kts | 287° |
| 2026-05-05 08:38 | 30.55656 | 104.01429 | 31899 ft | 394 kts | 288° |
| 2026-05-05 08:39 | 30.56402 | 103.98392 | 32291 ft | 394 kts | 287° |
| 2026-05-05 08:39 | 30.57146 | 103.95335 | 32642 ft | 396 kts | 287° |
| 2026-05-05 08:39 | 30.57917 | 103.92255 | 32922 ft | 399 kts | 289° |
| 2026-05-05 08:39 | 30.58773 | 103.89186 | 33275 ft | 400 kts | 290° |
| 2026-05-05 08:40 | 30.59656 | 103.86150 | 33686 ft | 400 kts | 290° |
| 2026-05-05 08:40 | 30.60535 | 103.83111 | 33894 ft | 402 kts | 290° |
| 2026-05-05 08:40 | 30.61405 | 103.80002 | 33901 ft | 403 kts | 289° |
| 2026-05-05 08:41 | 30.63056 | 103.73884 | 33936 ft | 397 kts | 289° |
| 2026-05-05 08:41 | 30.64735 | 103.67787 | 33930 ft | 396 kts | 289° |
| 2026-05-05 08:42 | 30.66235 | 103.61649 | 33962 ft | 399 kts | 287° |
| 2026-05-05 08:42 | 30.67706 | 103.55416 | 33953 ft | 400 kts | 287° |
| 2026-05-05 08:43 | 30.69236 | 103.49244 | 33972 ft | 399 kts | 288° |
| 2026-05-05 08:43 | 30.70755 | 103.43057 | 34053 ft | 401 kts | 287° |
| 2026-05-05 08:44 | 30.72249 | 103.36805 | 34063 ft | 401 kts | 287° |
| 2026-05-05 08:44 | 30.73721 | 103.30604 | 34152 ft | 398 kts | 287° |
| 2026-05-05 08:45 | 30.75190 | 103.24425 | 34240 ft | 401 kts | 287° |
| 2026-05-05 08:45 | 30.76685 | 103.18197 | 34369 ft | 398 kts | 287° |
| 2026-05-05 08:46 | 30.78182 | 103.12011 | 34429 ft | 399 kts | 287° |
| 2026-05-05 08:46 | 30.79613 | 103.05826 | 34525 ft | 400 kts | 284° |
| 2026-05-05 08:47 | 30.80333 | 102.99423 | 34583 ft | 401 kts | 275° |
| 2026-05-05 08:47 | 30.80301 | 102.92936 | 34573 ft | 403 kts | 272° |
| 2026-05-05 08:48 | 30.80263 | 102.86455 | 34580 ft | 402 kts | 272° |
| 2026-05-05 08:48 | 30.80211 | 102.79950 | 34580 ft | 403 kts | 272° |
| 2026-05-05 08:49 | 30.80094 | 102.73444 | 34515 ft | 404 kts | 271° |
| 2026-05-05 08:49 | 30.79948 | 102.66975 | 34537 ft | 401 kts | 272° |
| 2026-05-05 08:50 | 30.79849 | 102.60473 | 34550 ft | 402 kts | 272° |
| 2026-05-05 08:50 | 30.79749 | 102.54000 | 34544 ft | 403 kts | 271° |
| 2026-05-05 08:51 | 30.79627 | 102.47488 | 34553 ft | 403 kts | 271° |
| 2026-05-05 08:51 | 30.79499 | 102.41004 | 34555 ft | 403 kts | 271° |
| 2026-05-05 08:52 | 30.79346 | 102.34547 | 34562 ft | 403 kts | 271° |
| 2026-05-05 08:52 | 30.79189 | 102.28007 | 34549 ft | 403 kts | 270° |
| 2026-05-05 08:53 | 30.79057 | 102.21572 | 34545 ft | 402 kts | 271° |
| 2026-05-05 08:53 | 30.78909 | 102.15064 | 34528 ft | 404 kts | 270° |
| 2026-05-05 08:54 | 30.78752 | 102.08551 | 34492 ft | 403 kts | 270° |
| 2026-05-05 08:54 | 30.78601 | 102.02082 | 34454 ft | 403 kts | 270° |
| 2026-05-05 08:55 | 30.78446 | 101.95549 | 34455 ft | 403 kts | 270° |
| 2026-05-05 08:55 | 30.78404 | 101.89115 | 34491 ft | 399 kts | 275° |
| 2026-05-05 08:56 | 30.78969 | 101.82702 | 34517 ft | 398 kts | 277° |
| 2026-05-05 08:56 | 30.79473 | 101.76332 | 34549 ft | 397 kts | 276° |
| 2026-05-05 08:57 | 30.79966 | 101.69968 | 34562 ft | 395 kts | 277° |
| 2026-05-05 08:57 | 30.80522 | 101.63644 | 34577 ft | 394 kts | 277° |
| 2026-05-05 08:58 | 30.81045 | 101.57315 | 34576 ft | 396 kts | 277° |
| 2026-05-05 08:58 | 30.81543 | 101.50999 | 34588 ft | 393 kts | 277° |
| 2026-05-05 08:59 | 30.82026 | 101.44669 | 34598 ft | 393 kts | 277° |
| 2026-05-05 08:59 | 30.82539 | 101.38351 | 34595 ft | 395 kts | 277° |
| 2026-05-05 09:00 | 30.83072 | 101.32009 | 34592 ft | 392 kts | 276° |
| 2026-05-05 09:00 | 30.83589 | 101.25748 | 34584 ft | 393 kts | 276° |
| 2026-05-05 09:01 | 30.84068 | 101.19417 | 34588 ft | 391 kts | 276° |
| 2026-05-05 09:01 | 30.84524 | 101.13167 | 34605 ft | 389 kts | 276° |
| 2026-05-05 09:02 | 30.85016 | 101.06923 | 34611 ft | 389 kts | 276° |
| 2026-05-05 09:02 | 30.85540 | 101.00674 | 34625 ft | 388 kts | 276° |
| 2026-05-05 09:03 | 30.86000 | 100.94472 | 34640 ft | 386 kts | 275° |
| 2026-05-05 09:03 | 30.86447 | 100.88252 | 34636 ft | 388 kts | 276° |
| 2026-05-05 09:04 | 30.86929 | 100.82040 | 34651 ft | 386 kts | 276° |
| 2026-05-05 09:04 | 30.87417 | 100.75821 | 34672 ft | 387 kts | 276° |
| 2026-05-05 09:05 | 30.87897 | 100.69584 | 34664 ft | 387 kts | 276° |
| 2026-05-05 09:05 | 30.88365 | 100.63373 | 34682 ft | 385 kts | 276° |
| 2026-05-05 09:06 | 30.88829 | 100.57205 | 34680 ft | 387 kts | 276° |
| 2026-05-05 09:06 | 30.89290 | 100.50957 | 34707 ft | 386 kts | 276° |
| 2026-05-05 09:07 | 30.89737 | 100.44747 | 34722 ft | 388 kts | 276° |
| 2026-05-05 09:07 | 30.90191 | 100.38512 | 34732 ft | 387 kts | 276° |
| 2026-05-05 09:08 | 30.90643 | 100.32295 | 34732 ft | 388 kts | 276° |
| 2026-05-05 09:08 | 30.91084 | 100.26051 | 34760 ft | 387 kts | 275° |
| 2026-05-05 09:09 | 30.91514 | 100.19800 | 34761 ft | 388 kts | 275° |
| 2026-05-05 09:09 | 30.91958 | 100.13582 | 34779 ft | 388 kts | 276° |
| 2026-05-05 09:10 | 30.92417 | 100.07347 | 34782 ft | 387 kts | 276° |
| 2026-05-05 09:10 | 30.92844 | 100.01086 | 34811 ft | 387 kts | 276° |
| 2026-05-05 09:11 | 30.93285 | 99.94868 | 34805 ft | 387 kts | 276° |
| 2026-05-05 09:11 | 30.93812 | 99.88628 | 34798 ft | 388 kts | 276° |
| 2026-05-05 09:12 | 30.94295 | 99.82395 | 34770 ft | 388 kts | 276° |
| 2026-05-05 09:12 | 30.94767 | 99.76160 | 34755 ft | 388 kts | 276° |
| 2026-05-05 09:13 | 30.95264 | 99.69910 | 34753 ft | 389 kts | 276° |
| 2026-05-05 09:13 | 30.95775 | 99.63652 | 34745 ft | 390 kts | 276° |
| 2026-05-05 09:14 | 30.96259 | 99.57398 | 34749 ft | 388 kts | 276° |
| 2026-05-05 09:14 | 30.96737 | 99.51141 | 34744 ft | 388 kts | 276° |
| 2026-05-05 09:15 | 30.97186 | 99.44903 | 34736 ft | 390 kts | 276° |
| 2026-05-05 09:15 | 30.97668 | 99.38610 | 34710 ft | 390 kts | 276° |
| 2026-05-05 09:16 | 30.98162 | 99.32320 | 34718 ft | 390 kts | 275° |
| 2026-05-05 09:16 | 30.98611 | 99.26038 | 34705 ft | 392 kts | 275° |
| 2026-05-05 09:17 | 30.99053 | 99.19757 | 34691 ft | 390 kts | 275° |
| 2026-05-05 09:17 | 30.99535 | 99.13469 | 34671 ft | 392 kts | 275° |
| 2026-05-05 09:18 | 31.00007 | 99.07156 | 34655 ft | 393 kts | 275° |
| 2026-05-05 09:18 | 31.00467 | 99.00816 | 34669 ft | 392 kts | 275° |
| 2026-05-05 09:19 | 31.00910 | 98.94490 | 34660 ft | 392 kts | 275° |
| 2026-05-05 09:19 | 31.01358 | 98.88183 | 34667 ft | 393 kts | 275° |
| 2026-05-05 09:20 | 31.01808 | 98.81860 | 34679 ft | 393 kts | 275° |
| 2026-05-05 09:20 | 31.02256 | 98.75496 | 34677 ft | 394 kts | 275° |
| 2026-05-05 09:21 | 31.02700 | 98.69188 | 34690 ft | 391 kts | 275° |
| 2026-05-05 09:21 | 31.03156 | 98.62888 | 34710 ft | 391 kts | 275° |
| 2026-05-05 09:22 | 31.03725 | 98.56580 | 34726 ft | 392 kts | 276° |
| 2026-05-05 09:22 | 31.04254 | 98.50268 | 34737 ft | 391 kts | 275° |
| 2026-05-05 09:23 | 31.04750 | 98.43941 | 34743 ft | 394 kts | 275° |
| 2026-05-05 09:23 | 31.05277 | 98.37645 | 34737 ft | 392 kts | 276° |
| 2026-05-05 09:24 | 31.05815 | 98.31322 | 34734 ft | 393 kts | 275° |
| 2026-05-05 09:24 | 31.06304 | 98.25002 | 34737 ft | 392 kts | 275° |
| 2026-05-05 09:25 | 31.06828 | 98.18683 | 34738 ft | 394 kts | 275° |
| 2026-05-05 09:25 | 31.07344 | 98.12321 | 34757 ft | 392 kts | 274° |
| 2026-05-05 09:26 | 31.07827 | 98.06043 | 34769 ft | 392 kts | 275° |
| 2026-05-05 09:26 | 31.08347 | 97.99731 | 34777 ft | 393 kts | 275° |
| 2026-05-05 09:27 | 31.08877 | 97.93382 | 34786 ft | 393 kts | 275° |
| 2026-05-05 09:27 | 31.09382 | 97.87044 | 34785 ft | 394 kts | 275° |
| 2026-05-05 09:28 | 31.09868 | 97.80718 | 34785 ft | 394 kts | 275° |
| 2026-05-05 09:28 | 31.10355 | 97.74342 | 34780 ft | 395 kts | 274° |
| 2026-05-05 09:29 | 31.10835 | 97.67999 | 34775 ft | 393 kts | 274° |
| 2026-05-05 09:29 | 31.11314 | 97.61655 | 34765 ft | 395 kts | 274° |
| 2026-05-05 09:30 | 31.11806 | 97.55293 | 34769 ft | 397 kts | 275° |
| 2026-05-05 09:30 | 31.12323 | 97.48881 | 34772 ft | 394 kts | 275° |
| 2026-05-05 09:31 | 31.12817 | 97.42578 | 34746 ft | 395 kts | 275° |
| 2026-05-05 09:31 | 31.13281 | 97.36192 | 34746 ft | 395 kts | 275° |
| 2026-05-05 09:32 | 31.13739 | 97.29808 | 34740 ft | 396 kts | 274° |
| 2026-05-05 09:32 | 31.14240 | 97.23417 | 34755 ft | 395 kts | 273° |
| 2026-05-05 09:33 | 31.14180 | 97.17069 | 34769 ft | 396 kts | 264° |
| 2026-05-05 09:33 | 31.13046 | 97.10791 | 34763 ft | 398 kts | 257° |
| 2026-05-05 09:34 | 31.11762 | 97.04517 | 34754 ft | 397 kts | 258° |
| 2026-05-05 09:34 | 31.10488 | 96.98292 | 34761 ft | 398 kts | 257° |
| 2026-05-05 09:35 | 31.09119 | 96.91994 | 34754 ft | 399 kts | 257° |
| 2026-05-05 09:35 | 31.07123 | 96.82608 | 34739 ft | 400 kts | 258° |
| 2026-05-05 09:36 | 31.05795 | 96.76318 | 34767 ft | 401 kts | 257° |
| 2026-05-05 09:36 | 31.04439 | 96.70032 | 34778 ft | 398 kts | 257° |
| 2026-05-05 09:37 | 31.03049 | 96.63773 | 34774 ft | 401 kts | 257° |
| 2026-05-05 09:37 | 31.01673 | 96.57531 | 34771 ft | 401 kts | 258° |
| 2026-05-05 09:38 | 31.00311 | 96.51231 | 34760 ft | 400 kts | 257° |
| 2026-05-05 09:38 | 30.98972 | 96.44976 | 34775 ft | 401 kts | 258° |
| 2026-05-05 09:39 | 30.97596 | 96.38670 | 34764 ft | 404 kts | 258° |
| 2026-05-05 09:39 | 30.96259 | 96.32362 | 34765 ft | 401 kts | 258° |
| 2026-05-05 09:40 | 30.94945 | 96.26063 | 34775 ft | 402 kts | 258° |
| 2026-05-05 09:40 | 30.93587 | 96.19753 | 34780 ft | 402 kts | 257° |
| 2026-05-05 09:41 | 30.92225 | 96.13459 | 34780 ft | 403 kts | 258° |
| 2026-05-05 09:41 | 30.90861 | 96.07157 | 34778 ft | 402 kts | 258° |
| 2026-05-05 09:42 | 30.89521 | 96.00864 | 34780 ft | 404 kts | 258° |
| 2026-05-05 09:42 | 30.88197 | 95.94505 | 34776 ft | 404 kts | 258° |
| 2026-05-05 09:43 | 30.86833 | 95.88195 | 34767 ft | 401 kts | 258° |
| 2026-05-05 09:43 | 30.85469 | 95.81932 | 34766 ft | 401 kts | 258° |
| 2026-05-05 09:44 | 30.84139 | 95.75692 | 34767 ft | 400 kts | 258° |
| 2026-05-05 09:44 | 30.82805 | 95.69393 | 34760 ft | 401 kts | 258° |
| 2026-05-05 09:45 | 30.81531 | 95.63123 | 34754 ft | 399 kts | 258° |
| 2026-05-05 09:45 | 30.80265 | 95.56873 | 34759 ft | 397 kts | 258° |
| 2026-05-05 09:46 | 30.78973 | 95.50623 | 34754 ft | 398 kts | 258° |
| 2026-05-05 09:46 | 30.77654 | 95.44404 | 34752 ft | 398 kts | 258° |
| 2026-05-05 09:47 | 30.76332 | 95.38174 | 34759 ft | 396 kts | 258° |
| 2026-05-05 09:47 | 30.75046 | 95.31983 | 34761 ft | 396 kts | 258° |
| 2026-05-05 09:48 | 30.73775 | 95.25777 | 34764 ft | 397 kts | 257° |
| 2026-05-05 09:48 | 30.72455 | 95.19540 | 34762 ft | 395 kts | 257° |
| 2026-05-05 09:49 | 30.71138 | 95.13387 | 34758 ft | 395 kts | 257° |
| 2026-05-05 09:49 | 30.69849 | 95.07211 | 34754 ft | 394 kts | 257° |
| 2026-05-05 09:50 | 30.68556 | 95.01020 | 34761 ft | 396 kts | 257° |
| 2026-05-05 09:50 | 30.67227 | 94.94854 | 34765 ft | 392 kts | 257° |
| 2026-05-05 09:51 | 30.65922 | 94.88721 | 34761 ft | 394 kts | 257° |
| 2026-05-05 09:51 | 30.64633 | 94.82565 | 34775 ft | 394 kts | 257° |
| 2026-05-05 09:52 | 30.63314 | 94.76401 | 34781 ft | 395 kts | 257° |
| 2026-05-05 09:52 | 30.61995 | 94.70272 | 34776 ft | 393 kts | 257° |
| 2026-05-05 09:53 | 30.60692 | 94.64141 | 34778 ft | 394 kts | 257° |
| 2026-05-05 09:53 | 30.59377 | 94.57983 | 34782 ft | 394 kts | 257° |
| 2026-05-05 09:54 | 30.58027 | 94.51817 | 34772 ft | 393 kts | 257° |
| 2026-05-05 09:54 | 30.56699 | 94.45737 | 34791 ft | 392 kts | 257° |
| 2026-05-05 09:55 | 30.55376 | 94.39580 | 34806 ft | 393 kts | 258° |
| 2026-05-05 09:55 | 30.54070 | 94.33457 | 34821 ft | 393 kts | 257° |
| 2026-05-05 09:56 | 30.52743 | 94.27307 | 34829 ft | 393 kts | 256° |
| 2026-05-05 09:56 | 30.51402 | 94.21171 | 34828 ft | 394 kts | 256° |
| 2026-05-05 09:57 | 30.50086 | 94.15042 | 34830 ft | 392 kts | 257° |
| 2026-05-05 09:57 | 30.48823 | 94.08896 | 34841 ft | 393 kts | 257° |
| 2026-05-05 09:58 | 30.47556 | 94.02762 | 34847 ft | 394 kts | 257° |
| 2026-05-05 09:58 | 30.46249 | 93.96603 | 34840 ft | 393 kts | 257° |
| 2026-05-05 09:59 | 30.45597 | 93.93532 | 34522 ft | 396 kts | 257° |
| 2026-05-05 09:59 | 30.44950 | 93.90456 | 33797 ft | 396 kts | 257° |
| 2026-05-05 09:59 | 30.44308 | 93.87381 | 33006 ft | 395 kts | 258° |
| 2026-05-05 09:59 | 30.43668 | 93.84300 | 32210 ft | 387 kts | 258° |
| 2026-05-05 10:00 | 30.43049 | 93.81319 | 31444 ft | 378 kts | 258° |
| 2026-05-05 10:00 | 30.42448 | 93.78436 | 30682 ft | 371 kts | 258° |
| 2026-05-05 10:00 | 30.41844 | 93.75566 | 29909 ft | 364 kts | 258° |
| 2026-05-05 10:00 | 30.41254 | 93.72773 | 29146 ft | 357 kts | 258° |
| 2026-05-05 10:01 | 30.40668 | 93.70009 | 28388 ft | 351 kts | 258° |
| 2026-05-05 10:01 | 30.40089 | 93.67291 | 27636 ft | 346 kts | 258° |
| 2026-05-05 10:01 | 30.39522 | 93.64627 | 26890 ft | 341 kts | 258° |
| 2026-05-05 10:01 | 30.38957 | 93.62024 | 26363 ft | 330 kts | 257° |
| 2026-05-05 10:02 | 30.38263 | 93.59546 | 26205 ft | 316 kts | 249° |
| 2026-05-05 10:02 | 30.37355 | 93.57251 | 26229 ft | 320 kts | 247° |
| 2026-05-05 10:02 | 30.36396 | 93.54887 | 26225 ft | 327 kts | 248° |
| 2026-05-05 10:02 | 30.35459 | 93.52483 | 26220 ft | 330 kts | 248° |
| 2026-05-05 10:03 | 30.34510 | 93.50077 | 26229 ft | 329 kts | 248° |
| 2026-05-05 10:03 | 30.33545 | 93.47685 | 26248 ft | 330 kts | 247° |
| 2026-05-05 10:03 | 30.32570 | 93.45290 | 26220 ft | 329 kts | 247° |
| 2026-05-05 10:03 | 30.31598 | 93.42890 | 26222 ft | 325 kts | 247° |
| 2026-05-05 10:04 | 30.30648 | 93.40523 | 26229 ft | 325 kts | 247° |
| 2026-05-05 10:04 | 30.29696 | 93.38161 | 26202 ft | 329 kts | 247° |
| 2026-05-05 10:04 | 30.28694 | 93.35692 | 25986 ft | 349 kts | 247° |
| 2026-05-05 10:04 | 30.27633 | 93.33083 | 25739 ft | 370 kts | 246° |
| 2026-05-05 10:05 | 30.26516 | 93.30353 | 25493 ft | 389 kts | 246° |
| 2026-05-05 10:05 | 30.25338 | 93.27480 | 25430 ft | 391 kts | 246° |
| 2026-05-05 10:05 | 30.24190 | 93.24676 | 25442 ft | 389 kts | 246° |
| 2026-05-05 10:05 | 30.23036 | 93.21841 | 25438 ft | 389 kts | 246° |
| 2026-05-05 10:06 | 30.21892 | 93.19018 | 25443 ft | 390 kts | 246° |
| 2026-05-05 10:06 | 30.20744 | 93.16192 | 25442 ft | 391 kts | 246° |
| 2026-05-05 10:06 | 30.19581 | 93.13351 | 25435 ft | 391 kts | 246° |
| 2026-05-05 10:06 | 30.18411 | 93.10516 | 25430 ft | 390 kts | 246° |
| 2026-05-05 10:07 | 30.17238 | 93.07681 | 25438 ft | 390 kts | 246° |
| 2026-05-05 10:07 | 30.16083 | 93.04876 | 25437 ft | 390 kts | 246° |
| 2026-05-05 10:07 | 30.14928 | 93.02068 | 25442 ft | 390 kts | 246° |
| 2026-05-05 10:07 | 30.13758 | 92.99216 | 25447 ft | 391 kts | 246° |
| 2026-05-05 10:08 | 30.12592 | 92.96367 | 25442 ft | 392 kts | 246° |
| 2026-05-05 10:08 | 30.11444 | 92.93566 | 25446 ft | 390 kts | 246° |
| 2026-05-05 10:08 | 30.10279 | 92.90728 | 25445 ft | 390 kts | 246° |
| 2026-05-05 10:08 | 30.09111 | 92.87887 | 25450 ft | 391 kts | 246° |
| 2026-05-05 10:09 | 30.07951 | 92.85070 | 25449 ft | 392 kts | 246° |
| 2026-05-05 10:09 | 30.06792 | 92.82255 | 25436 ft | 391 kts | 246° |
| 2026-05-05 10:09 | 30.05617 | 92.79401 | 25435 ft | 391 kts | 246° |
| 2026-05-05 10:09 | 30.04454 | 92.76578 | 25435 ft | 393 kts | 246° |
| 2026-05-05 10:10 | 30.03290 | 92.73756 | 25418 ft | 392 kts | 246° |
| 2026-05-05 10:10 | 30.02119 | 92.70924 | 25204 ft | 393 kts | 246° |
| 2026-05-05 10:10 | 30.00930 | 92.68062 | 24943 ft | 391 kts | 246° |
| 2026-05-05 10:10 | 29.99756 | 92.65248 | 24692 ft | 388 kts | 245° |
| 2026-05-05 10:11 | 29.98592 | 92.62461 | 24441 ft | 387 kts | 246° |
| 2026-05-05 10:11 | 29.97423 | 92.59654 | 24185 ft | 385 kts | 246° |
| 2026-05-05 10:11 | 29.96272 | 92.56885 | 23940 ft | 384 kts | 246° |
| 2026-05-05 10:11 | 29.95132 | 92.54136 | 23744 ft | 383 kts | 246° |
| 2026-05-05 10:12 | 29.93982 | 92.51353 | 23543 ft | 383 kts | 246° |
| 2026-05-05 10:12 | 29.92840 | 92.48593 | 23346 ft | 385 kts | 245° |
| 2026-05-05 10:12 | 29.91683 | 92.45824 | 23151 ft | 384 kts | 245° |
| 2026-05-05 10:12 | 29.90530 | 92.43075 | 22958 ft | 382 kts | 245° |
| 2026-05-05 10:13 | 29.89367 | 92.40299 | 22763 ft | 381 kts | 245° |
| 2026-05-05 10:13 | 29.88214 | 92.37531 | 22564 ft | 380 kts | 245° |
| 2026-05-05 10:13 | 29.87077 | 92.34794 | 22372 ft | 381 kts | 245° |
| 2026-05-05 10:13 | 29.85933 | 92.32056 | 22184 ft | 382 kts | 245° |
| 2026-05-05 10:14 | 29.84778 | 92.29305 | 21992 ft | 381 kts | 244° |
| 2026-05-05 10:14 | 29.83637 | 92.26589 | 21799 ft | 379 kts | 244° |
| 2026-05-05 10:14 | 29.82481 | 92.23834 | 21561 ft | 379 kts | 244° |
| 2026-05-05 10:14 | 29.81338 | 92.21103 | 21279 ft | 377 kts | 244° |
| 2026-05-05 10:15 | 29.80199 | 92.18387 | 21005 ft | 377 kts | 244° |
| 2026-05-05 10:15 | 29.79062 | 92.15679 | 20736 ft | 377 kts | 244° |
| 2026-05-05 10:15 | 29.77928 | 92.12985 | 20478 ft | 377 kts | 244° |
| 2026-05-05 10:15 | 29.76785 | 92.10267 | 20216 ft | 374 kts | 244° |
| 2026-05-05 10:16 | 29.75660 | 92.07591 | 19959 ft | 372 kts | 244° |
| 2026-05-05 10:16 | 29.74540 | 92.04932 | 19713 ft | 371 kts | 244° |
| 2026-05-05 10:16 | 29.73411 | 92.02255 | 19482 ft | 371 kts | 244° |
| 2026-05-05 10:16 | 29.72283 | 91.99578 | 19317 ft | 369 kts | 244° |
| 2026-05-05 10:17 | 29.71166 | 91.96924 | 19327 ft | 368 kts | 244° |
| 2026-05-05 10:17 | 29.70055 | 91.94289 | 19311 ft | 370 kts | 244° |
| 2026-05-05 10:17 | 29.68921 | 91.91606 | 19349 ft | 370 kts | 244° |
| 2026-05-05 10:17 | 29.67805 | 91.88972 | 19342 ft | 374 kts | 244° |
| 2026-05-05 10:18 | 29.66670 | 91.86294 | 19319 ft | 371 kts | 244° |
| 2026-05-05 10:18 | 29.65544 | 91.83640 | 19296 ft | 370 kts | 244° |
| 2026-05-05 10:18 | 29.64418 | 91.80988 | 19235 ft | 369 kts | 244° |
| 2026-05-05 10:18 | 29.63280 | 91.78307 | 19235 ft | 370 kts | 244° |
| 2026-05-05 10:19 | 29.62156 | 91.75647 | 19302 ft | 370 kts | 244° |
| 2026-05-05 10:19 | 29.61035 | 91.72989 | 19406 ft | 370 kts | 244° |
| 2026-05-05 10:19 | 29.59910 | 91.70343 | 19531 ft | 371 kts | 244° |
| 2026-05-05 10:19 | 29.58764 | 91.67663 | 19661 ft | 373 kts | 244° |
| 2026-05-05 10:20 | 29.57641 | 91.65036 | 19787 ft | 372 kts | 244° |
| 2026-05-05 10:20 | 29.56500 | 91.62365 | 19916 ft | 373 kts | 244° |
| 2026-05-05 10:20 | 29.55367 | 91.59699 | 20040 ft | 373 kts | 244° |
| 2026-05-05 10:20 | 29.54221 | 91.57003 | 20135 ft | 376 kts | 244° |
| 2026-05-05 10:21 | 29.53070 | 91.54303 | 20200 ft | 376 kts | 244° |
| 2026-05-05 10:21 | 29.51918 | 91.51615 | 20211 ft | 374 kts | 244° |
| 2026-05-05 10:21 | 29.50782 | 91.48965 | 20234 ft | 375 kts | 244° |
| 2026-05-05 10:21 | 29.49624 | 91.46269 | 20233 ft | 377 kts | 244° |
| 2026-05-05 10:22 | 29.48462 | 91.43561 | 20217 ft | 374 kts | 244° |
| 2026-05-05 10:22 | 29.47308 | 91.40903 | 20217 ft | 374 kts | 242° |
| 2026-05-05 10:22 | 29.45777 | 91.38530 | 20209 ft | 376 kts | 224° |
| 2026-05-05 10:22 | 29.43553 | 91.36937 | 20195 ft | 379 kts | 201° |
| 2026-05-05 10:23 | 29.40939 | 91.36510 | 20188 ft | 383 kts | 178° |
| 2026-05-05 10:23 | 29.38300 | 91.36910 | 20185 ft | 385 kts | 174° |
| 2026-05-05 10:23 | 29.35612 | 91.37008 | 20178 ft | 382 kts | 191° |
| 2026-05-05 10:23 | 29.33139 | 91.36087 | 20194 ft | 377 kts | 209° |
| 2026-05-05 10:24 | 29.30848 | 91.34611 | 20197 ft | 377 kts | 210° |
| 2026-05-05 10:24 | 29.28558 | 91.33103 | 20197 ft | 377 kts | 214° |
| 2026-05-05 10:24 | 29.26608 | 91.31144 | 20191 ft | 362 kts | 233° |
| 2026-05-05 10:24 | 29.25426 | 91.28743 | 20212 ft | 332 kts | 246° |
| 2026-05-05 10:25 | 29.24523 | 91.26428 | 20176 ft | 307 kts | 246° |
| 2026-05-05 10:25 | 29.23855 | 91.24198 | 20085 ft | 288 kts | 258° |
| 2026-05-05 10:25 | 29.23699 | 91.22014 | 19909 ft | 274 kts | 272° |
| 2026-05-05 10:25 | 29.24028 | 91.19878 | 19524 ft | 271 kts | 283° |
| 2026-05-05 10:26 | 29.24554 | 91.17889 | 19357 ft | 256 kts | 287° |
| 2026-05-05 10:26 | 29.25320 | 91.16147 | 19273 ft | 239 kts | 303° |
| 2026-05-05 10:26 | 29.26447 | 91.14703 | 18816 ft | 244 kts | 308° |
| 2026-05-05 10:26 | 29.27460 | 91.13164 | 18357 ft | 242 kts | 297° |
| 2026-05-05 10:27 | 29.28154 | 91.11455 | 18002 ft | 228 kts | 288° |
| 2026-05-05 10:27 | 29.28697 | 91.09938 | 18108 ft | 192 kts | 288° |
| 2026-05-05 10:27 | 29.29133 | 91.08513 | 17916 ft | 193 kts | 282° |
| 2026-05-05 10:27 | 29.29403 | 91.07079 | 17852 ft | 190 kts | 277° |
| 2026-05-05 10:28 | 29.29543 | 91.05603 | 14504 ft | 178 kts | 274° |
| 2026-05-05 10:28 | 29.29749 | 91.04143 | 14528 ft | 187 kts | 275° |
| 2026-05-05 10:28 | 29.29907 | 91.02698 | 14474 ft | 184 kts | 269° |
| 2026-05-05 10:28 | 29.29956 | 91.01238 | 14548 ft | 186 kts | 269° |
| 2026-05-05 10:29 | 29.29901 | 90.99772 | 13280 ft | 181 kts | 263° |
| 2026-05-05 10:29 | 29.29867 | 90.98315 | 13187 ft | 185 kts | 265° |
| 2026-05-05 10:29 | 29.29895 | 90.96852 | 12940 ft | 185 kts | 266° |
| 2026-05-05 10:29 | 29.29885 | 90.95409 | 12566 ft | 179 kts | 265° |
| 2026-05-05 10:30 | 29.29849 | 90.94011 | 12177 ft | 175 kts | 266° |
| 2026-05-05 10:30 | 29.29828 | 90.92654 | 11945 ft | 162 kts | 265° |
| 2026-05-05 10:30 | 29.29807 | 90.91589 | 11932 ft | 91 kts | 269° |
| 2026-05-05 10:30 | 29.29798 | 90.91071 | 11933 ft | 58 kts | 262° |
| 2026-05-05 10:31 | 29.29800 | 90.90633 | 11941 ft | 51 kts | 272° |
| 2026-05-05 10:31 | 29.29732 | 90.90369 | 11943 ft | 2 kts | 237° |
| 2026-05-05 10:35 | 29.29728 | 90.90361 | 11943 ft | 2 kts | 241° |
| 2026-05-05 10:35 | 29.29719 | 90.90340 | 11943 ft | 4 kts | 244° |
| 2026-05-05 10:36 | 29.29693 | 90.90285 | 11943 ft | 11 kts | 241° |
| 2026-05-05 10:36 | 29.29648 | 90.90186 | 11942 ft | 2 kts | 242° |
| 2026-05-05 10:38 | 29.29645 | 90.90180 | 11942 ft | 2 kts | 245° |
| 2026-05-05 10:38 | 29.29634 | 90.90140 | 11942 ft | 10 kts | 259° |
| 2026-05-05 10:38 | 29.29603 | 90.90015 | 11942 ft | 20 kts | 213° |
| 2026-05-05 10:39 | 29.29519 | 90.89942 | 11944 ft | 16 kts | 268° |
| 2026-05-05 10:39 | 29.29519 | 90.89805 | 11944 ft | 18 kts | 270° |
| 2026-05-05 10:39 | 29.29515 | 90.89638 | 11941 ft | 22 kts | 267° |
| 2026-05-05 10:39 | 29.29513 | 90.89462 | 11942 ft | 22 kts | 268° |
| 2026-05-05 10:40 | 29.29510 | 90.89342 | 11942 ft | 5 kts | 268° |
| 2026-05-05 10:40 | 29.29509 | 90.89265 | 11943 ft | 14 kts | 269° |
| 2026-05-05 10:40 | 29.29444 | 90.89198 | 11945 ft | 14 kts | 181° |
| 2026-05-05 10:40 | 29.29371 | 90.89204 | 11945 ft | 4 kts | 135° |
| 2026-05-05 10:41 | 29.29356 | 90.89248 | 11945 ft | 6 kts | 108° |
| 2026-05-05 10:41 | 29.29353 | 90.89259 | 11945 ft | 0 kts | 102° |
| 2026-05-05 10:41 | 29.29350 | 90.89272 | 11945 ft | 4 kts | 105° |